sensor_id;sensor_type;location;lat;lon;timestamp;P1;durP1;ratioP1;P2;durP2;ratioP2
31537;SDS011;18147;51.952;6.146;2023-05-07T00:01:56;20.90;;;14.98;;
31537;SDS011;18147;51.952;6.146;2023-05-07T00:04:22;21.65;;;14.98;;
31537;SDS011;18147;51.952;6.146;2023-05-07T00:06:47;20.63;;;14.13;;
31537;SDS011;18147;51.952;6.146;2023-05-07T00:09:13;19.50;;;14.88;;
31537;SDS011;18147;51.952;6.146;2023-05-07T00:11:39;20.30;;;16.13;;
31537;SDS011;18147;51.952;6.146;2023-05-07T00:14:05;19.70;;;16.48;;
31537;SDS011;18147;51.952;6.146;2023-05-07T00:16:31;18.17;;;15.27;;
31537;SDS011;18147;51.952;6.146;2023-05-07T00:18:57;20.23;;;16.13;;
31537;SDS011;18147;51.952;6.146;2023-05-07T00:21:22;24.05;;;17.23;;
31537;SDS011;18147;51.952;6.146;2023-05-07T00:23:51;24.98;;;19.33;;
31537;SDS011;18147;51.952;6.146;2023-05-07T00:26:17;23.02;;;17.88;;
31537;SDS011;18147;51.952;6.146;2023-05-07T00:28:44;21.67;;;17.60;;
31537;SDS011;18147;51.952;6.146;2023-05-07T00:31:10;26.58;;;17.73;;
31537;SDS011;18147;51.952;6.146;2023-05-07T00:33:36;22.95;;;17.63;;
31537;SDS011;18147;51.952;6.146;2023-05-07T00:36:01;26.13;;;18.30;;
31537;SDS011;18147;51.952;6.146;2023-05-07T00:38:27;20.88;;;17.27;;
31537;SDS011;18147;51.952;6.146;2023-05-07T00:40:52;22.90;;;18.13;;
31537;SDS011;18147;51.952;6.146;2023-05-07T00:43:18;21.98;;;17.52;;
31537;SDS011;18147;51.952;6.146;2023-05-07T00:45:44;24.73;;;19.05;;
31537;SDS011;18147;51.952;6.146;2023-05-07T00:48:09;27.45;;;19.40;;
31537;SDS011;18147;51.952;6.146;2023-05-07T00:50:36;23.60;;;18.65;;
31537;SDS011;18147;51.952;6.146;2023-05-07T00:53:02;21.88;;;17.50;;
31537;SDS011;18147;51.952;6.146;2023-05-07T00:55:31;21.75;;;18.05;;
31537;SDS011;18147;51.952;6.146;2023-05-07T00:57:56;23.50;;;18.45;;
31537;SDS011;18147;51.952;6.146;2023-05-07T01:00:23;22.58;;;18.48;;
31537;SDS011;18147;51.952;6.146;2023-05-07T01:02:50;22.02;;;17.88;;
31537;SDS011;18147;51.952;6.146;2023-05-07T01:05:16;24.52;;;18.85;;
31537;SDS011;18147;51.952;6.146;2023-05-07T01:07:44;23.98;;;18.35;;
31537;SDS011;18147;51.952;6.146;2023-05-07T01:10:10;20.50;;;17.70;;
31537;SDS011;18147;51.952;6.146;2023-05-07T01:12:37;21.63;;;16.65;;
31537;SDS011;18147;51.952;6.146;2023-05-07T01:15:06;23.45;;;17.33;;
31537;SDS011;18147;51.952;6.146;2023-05-07T01:17:38;26.17;;;19.45;;
31537;SDS011;18147;51.952;6.146;2023-05-07T01:20:09;23.67;;;18.92;;
31537;SDS011;18147;51.952;6.146;2023-05-07T01:22:37;23.83;;;17.98;;
31537;SDS011;18147;51.952;6.146;2023-05-07T01:25:06;19.40;;;17.00;;
31537;SDS011;18147;51.952;6.146;2023-05-07T01:27:36;23.92;;;19.20;;
31537;SDS011;18147;51.952;6.146;2023-05-07T01:30:05;25.73;;;18.38;;
31537;SDS011;18147;51.952;6.146;2023-05-07T01:33:06;24.33;;;18.17;;
31537;SDS011;18147;51.952;6.146;2023-05-07T01:35:27;24.65;;;19.08;;
31537;SDS011;18147;51.952;6.146;2023-05-07T01:37:58;21.83;;;18.95;;
31537;SDS011;18147;51.952;6.146;2023-05-07T01:40:26;25.00;;;18.13;;
31537;SDS011;18147;51.952;6.146;2023-05-07T01:42:52;22.88;;;18.00;;
31537;SDS011;18147;51.952;6.146;2023-05-07T01:45:19;24.13;;;18.75;;
31537;SDS011;18147;51.952;6.146;2023-05-07T01:47:45;24.38;;;18.58;;
31537;SDS011;18147;51.952;6.146;2023-05-07T01:50:11;23.30;;;17.98;;
31537;SDS011;18147;51.952;6.146;2023-05-07T01:52:38;25.65;;;18.55;;
31537;SDS011;18147;51.952;6.146;2023-05-07T01:55:05;22.27;;;17.17;;
31537;SDS011;18147;51.952;6.146;2023-05-07T01:57:31;23.45;;;18.17;;
31537;SDS011;18147;51.952;6.146;2023-05-07T01:59:57;24.65;;;19.55;;
31537;SDS011;18147;51.952;6.146;2023-05-07T02:02:23;20.88;;;17.42;;
31537;SDS011;18147;51.952;6.146;2023-05-07T02:04:49;26.02;;;19.10;;
31537;SDS011;18147;51.952;6.146;2023-05-07T02:07:15;26.95;;;18.60;;
31537;SDS011;18147;51.952;6.146;2023-05-07T02:09:42;27.15;;;20.38;;
31537;SDS011;18147;51.952;6.146;2023-05-07T02:12:07;24.00;;;18.52;;
31537;SDS011;18147;51.952;6.146;2023-05-07T02:14:33;31.02;;;19.13;;
31537;SDS011;18147;51.952;6.146;2023-05-07T02:16:59;24.42;;;18.55;;
31537;SDS011;18147;51.952;6.146;2023-05-07T02:19:25;25.42;;;19.75;;
31537;SDS011;18147;51.952;6.146;2023-05-07T02:21:51;28.33;;;18.65;;
31537;SDS011;18147;51.952;6.146;2023-05-07T02:24:18;25.95;;;18.55;;
31537;SDS011;18147;51.952;6.146;2023-05-07T02:26:44;28.13;;;19.20;;
31537;SDS011;18147;51.952;6.146;2023-05-07T02:29:10;29.90;;;19.42;;
31537;SDS011;18147;51.952;6.146;2023-05-07T02:31:37;25.33;;;19.67;;
31537;SDS011;18147;51.952;6.146;2023-05-07T02:34:02;27.73;;;20.88;;
31537;SDS011;18147;51.952;6.146;2023-05-07T02:36:29;29.25;;;21.10;;
31537;SDS011;18147;51.952;6.146;2023-05-07T02:39:05;26.23;;;21.30;;
31537;SDS011;18147;51.952;6.146;2023-05-07T02:41:31;29.70;;;21.30;;
31537;SDS011;18147;51.952;6.146;2023-05-07T02:43:57;29.27;;;21.98;;
31537;SDS011;18147;51.952;6.146;2023-05-07T02:46:22;30.10;;;22.33;;
31537;SDS011;18147;51.952;6.146;2023-05-07T02:48:56;33.42;;;23.15;;
31537;SDS011;18147;51.952;6.146;2023-05-07T02:51:22;27.95;;;23.15;;
31537;SDS011;18147;51.952;6.146;2023-05-07T02:53:48;32.17;;;24.23;;
31537;SDS011;18147;51.952;6.146;2023-05-07T02:56:14;33.70;;;22.92;;
31537;SDS011;18147;51.952;6.146;2023-05-07T02:58:40;28.77;;;23.10;;
31537;SDS011;18147;51.952;6.146;2023-05-07T03:01:07;29.73;;;23.17;;
31537;SDS011;18147;51.952;6.146;2023-05-07T03:03:52;36.05;;;25.27;;
31537;SDS011;18147;51.952;6.146;2023-05-07T03:06:18;35.10;;;24.63;;
31537;SDS011;18147;51.952;6.146;2023-05-07T03:08:43;31.85;;;24.60;;
31537;SDS011;18147;51.952;6.146;2023-05-07T03:11:09;35.05;;;23.70;;
31537;SDS011;18147;51.952;6.146;2023-05-07T03:13:35;35.35;;;25.05;;
31537;SDS011;18147;51.952;6.146;2023-05-07T03:16:00;35.20;;;25.90;;
31537;SDS011;18147;51.952;6.146;2023-05-07T03:18:26;32.58;;;24.48;;
31537;SDS011;18147;51.952;6.146;2023-05-07T03:20:52;32.90;;;24.52;;
31537;SDS011;18147;51.952;6.146;2023-05-07T03:23:18;32.65;;;24.77;;
31537;SDS011;18147;51.952;6.146;2023-05-07T03:25:43;29.70;;;23.27;;
31537;SDS011;18147;51.952;6.146;2023-05-07T03:28:09;30.40;;;23.90;;
31537;SDS011;18147;51.952;6.146;2023-05-07T03:30:40;34.22;;;25.08;;
31537;SDS011;18147;51.952;6.146;2023-05-07T03:33:06;32.28;;;22.90;;
31537;SDS011;18147;51.952;6.146;2023-05-07T03:35:32;27.25;;;22.55;;
31537;SDS011;18147;51.952;6.146;2023-05-07T03:37:58;33.63;;;24.45;;
31537;SDS011;18147;51.952;6.146;2023-05-07T03:40:26;37.83;;;25.95;;
31537;SDS011;18147;51.952;6.146;2023-05-07T03:42:53;29.77;;;22.73;;
31537;SDS011;18147;51.952;6.146;2023-05-07T03:45:22;32.83;;;24.20;;
31537;SDS011;18147;51.952;6.146;2023-05-07T03:47:56;34.70;;;25.77;;
31537;SDS011;18147;51.952;6.146;2023-05-07T03:50:23;33.75;;;24.98;;
31537;SDS011;18147;51.952;6.146;2023-05-07T03:52:48;30.38;;;23.50;;
31537;SDS011;18147;51.952;6.146;2023-05-07T03:55:17;36.33;;;25.95;;
31537;SDS011;18147;51.952;6.146;2023-05-07T03:57:48;34.42;;;25.20;;
31537;SDS011;18147;51.952;6.146;2023-05-07T04:00:13;33.30;;;25.52;;
31537;SDS011;18147;51.952;6.146;2023-05-07T04:02:48;33.22;;;24.38;;
31537;SDS011;18147;51.952;6.146;2023-05-07T04:05:18;35.88;;;25.70;;
31537;SDS011;18147;51.952;6.146;2023-05-07T04:07:47;34.72;;;24.73;;
31537;SDS011;18147;51.952;6.146;2023-05-07T04:10:16;34.28;;;25.20;;
31537;SDS011;18147;51.952;6.146;2023-05-07T04:12:44;31.27;;;23.83;;
31537;SDS011;18147;51.952;6.146;2023-05-07T04:15:14;32.42;;;23.00;;
31537;SDS011;18147;51.952;6.146;2023-05-07T04:17:40;33.20;;;24.88;;
31537;SDS011;18147;51.952;6.146;2023-05-07T04:20:10;31.65;;;24.95;;
31537;SDS011;18147;51.952;6.146;2023-05-07T04:22:40;34.88;;;25.95;;
31537;SDS011;18147;51.952;6.146;2023-05-07T04:25:06;31.85;;;24.40;;
31537;SDS011;18147;51.952;6.146;2023-05-07T04:27:35;31.67;;;25.85;;
31537;SDS011;18147;51.952;6.146;2023-05-07T04:30:02;30.67;;;23.63;;
31537;SDS011;18147;51.952;6.146;2023-05-07T04:32:31;28.30;;;22.48;;
31537;SDS011;18147;51.952;6.146;2023-05-07T04:34:57;28.17;;;23.10;;
31537;SDS011;18147;51.952;6.146;2023-05-07T04:37:22;32.38;;;23.75;;
31537;SDS011;18147;51.952;6.146;2023-05-07T04:39:49;26.33;;;22.20;;
31537;SDS011;18147;51.952;6.146;2023-05-07T04:42:18;29.30;;;21.80;;
31537;SDS011;18147;51.952;6.146;2023-05-07T04:44:44;32.40;;;23.58;;
31537;SDS011;18147;51.952;6.146;2023-05-07T04:47:10;33.17;;;23.33;;
31537;SDS011;18147;51.952;6.146;2023-05-07T04:49:37;31.10;;;24.17;;
31537;SDS011;18147;51.952;6.146;2023-05-07T04:52:05;35.08;;;25.05;;
31537;SDS011;18147;51.952;6.146;2023-05-07T04:54:31;29.67;;;24.02;;
31537;SDS011;18147;51.952;6.146;2023-05-07T04:56:57;28.75;;;23.58;;
31537;SDS011;18147;51.952;6.146;2023-05-07T04:59:22;29.38;;;23.13;;
31537;SDS011;18147;51.952;6.146;2023-05-07T05:01:49;28.60;;;22.33;;
31537;SDS011;18147;51.952;6.146;2023-05-07T05:04:15;26.15;;;21.15;;
31537;SDS011;18147;51.952;6.146;2023-05-07T05:06:40;31.40;;;23.00;;
31537;SDS011;18147;51.952;6.146;2023-05-07T05:09:06;32.58;;;23.52;;
31537;SDS011;18147;51.952;6.146;2023-05-07T05:11:34;29.95;;;23.65;;
31537;SDS011;18147;51.952;6.146;2023-05-07T05:14:00;30.85;;;24.55;;
31537;SDS011;18147;51.952;6.146;2023-05-07T05:16:27;28.70;;;22.80;;
31537;SDS011;18147;51.952;6.146;2023-05-07T05:18:53;31.10;;;23.23;;
31537;SDS011;18147;51.952;6.146;2023-05-07T05:21:20;29.83;;;23.63;;
31537;SDS011;18147;51.952;6.146;2023-05-07T05:23:48;31.40;;;23.13;;
31537;SDS011;18147;51.952;6.146;2023-05-07T05:26:18;30.52;;;23.33;;
31537;SDS011;18147;51.952;6.146;2023-05-07T05:28:46;28.48;;;23.52;;
31537;SDS011;18147;51.952;6.146;2023-05-07T05:31:13;33.50;;;25.08;;
31537;SDS011;18147;51.952;6.146;2023-05-07T05:33:39;31.52;;;23.88;;
31537;SDS011;18147;51.952;6.146;2023-05-07T05:36:06;31.38;;;24.58;;
31537;SDS011;18147;51.952;6.146;2023-05-07T05:38:36;34.38;;;24.85;;
31537;SDS011;18147;51.952;6.146;2023-05-07T05:41:01;36.50;;;26.30;;
31537;SDS011;18147;51.952;6.146;2023-05-07T05:43:28;34.47;;;26.73;;
31537;SDS011;18147;51.952;6.146;2023-05-07T05:45:55;31.20;;;24.58;;
31537;SDS011;18147;51.952;6.146;2023-05-07T05:48:22;34.33;;;24.00;;
31537;SDS011;18147;51.952;6.146;2023-05-07T05:50:48;33.42;;;24.92;;
31537;SDS011;18147;51.952;6.146;2023-05-07T05:53:15;33.20;;;23.75;;
31537;SDS011;18147;51.952;6.146;2023-05-07T05:55:41;31.70;;;24.33;;
31537;SDS011;18147;51.952;6.146;2023-05-07T05:58:08;35.35;;;25.05;;
31537;SDS011;18147;51.952;6.146;2023-05-07T06:00:38;34.67;;;24.42;;
31537;SDS011;18147;51.952;6.146;2023-05-07T06:03:06;29.58;;;24.00;;
31537;SDS011;18147;51.952;6.146;2023-05-07T06:05:31;32.50;;;24.98;;
31537;SDS011;18147;51.952;6.146;2023-05-07T06:07:57;34.08;;;25.08;;
31537;SDS011;18147;51.952;6.146;2023-05-07T06:10:25;33.63;;;25.75;;
31537;SDS011;18147;51.952;6.146;2023-05-07T06:12:52;33.92;;;25.00;;
31537;SDS011;18147;51.952;6.146;2023-05-07T06:15:18;32.10;;;24.73;;
31537;SDS011;18147;51.952;6.146;2023-05-07T06:17:44;34.75;;;23.75;;
31537;SDS011;18147;51.952;6.146;2023-05-07T06:20:10;28.13;;;23.50;;
31537;SDS011;18147;51.952;6.146;2023-05-07T06:22:37;31.15;;;25.58;;
31537;SDS011;18147;51.952;6.146;2023-05-07T06:25:04;33.58;;;26.77;;
31537;SDS011;18147;51.952;6.146;2023-05-07T06:27:30;35.15;;;25.55;;
31537;SDS011;18147;51.952;6.146;2023-05-07T06:29:57;35.03;;;27.30;;
31537;SDS011;18147;51.952;6.146;2023-05-07T06:32:22;38.10;;;27.75;;
31537;SDS011;18147;51.952;6.146;2023-05-07T06:34:49;37.75;;;28.55;;
31537;SDS011;18147;51.952;6.146;2023-05-07T06:37:15;38.03;;;28.85;;
31537;SDS011;18147;51.952;6.146;2023-05-07T06:39:57;37.15;;;28.27;;
31537;SDS011;18147;51.952;6.146;2023-05-07T06:42:22;35.33;;;27.88;;
31537;SDS011;18147;51.952;6.146;2023-05-07T06:44:49;37.03;;;29.15;;
31537;SDS011;18147;51.952;6.146;2023-05-07T06:47:16;36.55;;;28.15;;
31537;SDS011;18147;51.952;6.146;2023-05-07T06:49:44;34.95;;;26.40;;
31537;SDS011;18147;51.952;6.146;2023-05-07T06:52:13;34.28;;;27.20;;
31537;SDS011;18147;51.952;6.146;2023-05-07T06:54:40;33.45;;;26.92;;
31537;SDS011;18147;51.952;6.146;2023-05-07T06:57:06;37.80;;;26.65;;
31537;SDS011;18147;51.952;6.146;2023-05-07T06:59:32;34.63;;;26.75;;
31537;SDS011;18147;51.952;6.146;2023-05-07T07:01:58;40.45;;;28.20;;
31537;SDS011;18147;51.952;6.146;2023-05-07T07:04:24;39.20;;;27.80;;
31537;SDS011;18147;51.952;6.146;2023-05-07T07:06:58;35.03;;;26.17;;
31537;SDS011;18147;51.952;6.146;2023-05-07T07:09:24;35.08;;;27.95;;
31537;SDS011;18147;51.952;6.146;2023-05-07T07:11:50;36.78;;;27.73;;
31537;SDS011;18147;51.952;6.146;2023-05-07T07:14:16;37.83;;;27.73;;
31537;SDS011;18147;51.952;6.146;2023-05-07T07:16:47;38.20;;;27.63;;
31537;SDS011;18147;51.952;6.146;2023-05-07T07:19:14;40.95;;;28.73;;
31537;SDS011;18147;51.952;6.146;2023-05-07T07:21:41;37.58;;;26.65;;
31537;SDS011;18147;51.952;6.146;2023-05-07T07:24:07;35.47;;;25.83;;
31537;SDS011;18147;51.952;6.146;2023-05-07T07:26:33;38.60;;;28.40;;
31537;SDS011;18147;51.952;6.146;2023-05-07T07:28:59;39.45;;;26.85;;
31537;SDS011;18147;51.952;6.146;2023-05-07T07:31:25;34.05;;;24.67;;
31537;SDS011;18147;51.952;6.146;2023-05-07T07:33:51;32.83;;;24.75;;
31537;SDS011;18147;51.952;6.146;2023-05-07T07:36:16;33.50;;;25.00;;
31537;SDS011;18147;51.952;6.146;2023-05-07T07:38:42;32.28;;;24.60;;
31537;SDS011;18147;51.952;6.146;2023-05-07T07:41:08;32.22;;;23.55;;
31537;SDS011;18147;51.952;6.146;2023-05-07T07:43:38;31.30;;;23.40;;
31537;SDS011;18147;51.952;6.146;2023-05-07T07:46:04;35.42;;;24.85;;
31537;SDS011;18147;51.952;6.146;2023-05-07T07:48:33;30.42;;;23.88;;
31537;SDS011;18147;51.952;6.146;2023-05-07T07:50:59;32.85;;;22.45;;
31537;SDS011;18147;51.952;6.146;2023-05-07T07:53:24;33.08;;;23.27;;
31537;SDS011;18147;51.952;6.146;2023-05-07T07:55:50;28.85;;;22.38;;
31537;SDS011;18147;51.952;6.146;2023-05-07T07:58:19;28.88;;;22.98;;
31537;SDS011;18147;51.952;6.146;2023-05-07T08:00:47;33.67;;;23.58;;
31537;SDS011;18147;51.952;6.146;2023-05-07T08:03:14;30.58;;;24.40;;
31537;SDS011;18147;51.952;6.146;2023-05-07T08:05:45;34.65;;;23.58;;
31537;SDS011;18147;51.952;6.146;2023-05-07T08:08:11;33.08;;;23.55;;
31537;SDS011;18147;51.952;6.146;2023-05-07T08:10:38;27.20;;;22.38;;
31537;SDS011;18147;51.952;6.146;2023-05-07T08:13:09;33.17;;;21.17;;
31537;SDS011;18147;51.952;6.146;2023-05-07T08:15:37;29.75;;;21.83;;
31537;SDS011;18147;51.952;6.146;2023-05-07T08:18:03;31.80;;;22.48;;
31537;SDS011;18147;51.952;6.146;2023-05-07T08:20:31;29.50;;;22.80;;
31537;SDS011;18147;51.952;6.146;2023-05-07T08:22:57;30.65;;;20.63;;
31537;SDS011;18147;51.952;6.146;2023-05-07T08:25:23;28.92;;;21.73;;
31537;SDS011;18147;51.952;6.146;2023-05-07T08:27:48;32.70;;;20.95;;
31537;SDS011;18147;51.952;6.146;2023-05-07T08:30:15;28.70;;;22.15;;
31537;SDS011;18147;51.952;6.146;2023-05-07T08:32:40;28.92;;;22.48;;
31537;SDS011;18147;51.952;6.146;2023-05-07T08:35:06;29.77;;;21.27;;
31537;SDS011;18147;51.952;6.146;2023-05-07T08:37:32;26.02;;;20.52;;
31537;SDS011;18147;51.952;6.146;2023-05-07T08:39:58;30.92;;;21.35;;
31537;SDS011;18147;51.952;6.146;2023-05-07T08:42:29;27.88;;;22.15;;
31537;SDS011;18147;51.952;6.146;2023-05-07T08:44:57;32.85;;;22.15;;
31537;SDS011;18147;51.952;6.146;2023-05-07T08:47:27;26.90;;;20.02;;
31537;SDS011;18147;51.952;6.146;2023-05-07T08:50:01;25.88;;;18.77;;
31537;SDS011;18147;51.952;6.146;2023-05-07T08:52:27;24.23;;;18.30;;
31537;SDS011;18147;51.952;6.146;2023-05-07T08:54:53;22.90;;;18.90;;
31537;SDS011;18147;51.952;6.146;2023-05-07T08:57:19;23.50;;;17.80;;
31537;SDS011;18147;51.952;6.146;2023-05-07T08:59:45;23.23;;;17.30;;
31537;SDS011;18147;51.952;6.146;2023-05-07T09:02:11;21.48;;;17.10;;
31537;SDS011;18147;51.952;6.146;2023-05-07T09:04:38;24.05;;;19.48;;
31537;SDS011;18147;51.952;6.146;2023-05-07T09:07:04;28.25;;;19.38;;
31537;SDS011;18147;51.952;6.146;2023-05-07T09:09:34;26.70;;;19.35;;
31537;SDS011;18147;51.952;6.146;2023-05-07T09:12:02;28.45;;;18.27;;
31537;SDS011;18147;51.952;6.146;2023-05-07T09:14:31;22.80;;;18.35;;
31537;SDS011;18147;51.952;6.146;2023-05-07T09:17:01;24.67;;;17.73;;
31537;SDS011;18147;51.952;6.146;2023-05-07T09:19:27;26.45;;;17.45;;
31537;SDS011;18147;51.952;6.146;2023-05-07T09:22:01;25.73;;;17.77;;
31537;SDS011;18147;51.952;6.146;2023-05-07T09:24:32;23.50;;;17.17;;
31537;SDS011;18147;51.952;6.146;2023-05-07T09:27:04;24.20;;;16.65;;
31537;SDS011;18147;51.952;6.146;2023-05-07T09:29:35;23.60;;;17.17;;
31537;SDS011;18147;51.952;6.146;2023-05-07T09:32:03;22.45;;;17.50;;
31537;SDS011;18147;51.952;6.146;2023-05-07T09:34:30;23.23;;;16.98;;
31537;SDS011;18147;51.952;6.146;2023-05-07T09:37:03;22.17;;;16.50;;
31537;SDS011;18147;51.952;6.146;2023-05-07T09:42:10;22.15;;;15.68;;
31537;SDS011;18147;51.952;6.146;2023-05-07T09:44:40;19.95;;;15.65;;
31537;SDS011;18147;51.952;6.146;2023-05-07T09:47:10;21.08;;;15.93;;
31537;SDS011;18147;51.952;6.146;2023-05-07T09:49:44;22.42;;;17.63;;
31537;SDS011;18147;51.952;6.146;2023-05-07T09:52:14;22.10;;;17.80;;
31537;SDS011;18147;51.952;6.146;2023-05-07T09:54:45;23.02;;;15.57;;
31537;SDS011;18147;51.952;6.146;2023-05-07T09:57:15;19.15;;;15.85;;
31537;SDS011;18147;51.952;6.146;2023-05-07T09:59:48;15.80;;;11.32;;
31537;SDS011;18147;51.952;6.146;2023-05-07T10:02:18;14.90;;;9.95;;
31537;SDS011;18147;51.952;6.146;2023-05-07T10:04:48;12.52;;;9.95;;
31537;SDS011;18147;51.952;6.146;2023-05-07T10:07:18;16.80;;;10.70;;
31537;SDS011;18147;51.952;6.146;2023-05-07T10:09:47;12.88;;;9.90;;
31537;SDS011;18147;51.952;6.146;2023-05-07T10:12:22;12.60;;;9.82;;
31537;SDS011;18147;51.952;6.146;2023-05-07T10:14:49;15.52;;;10.23;;
31537;SDS011;18147;51.952;6.146;2023-05-07T10:17:16;13.15;;;10.48;;
31537;SDS011;18147;51.952;6.146;2023-05-07T10:19:44;14.40;;;10.13;;
31537;SDS011;18147;51.952;6.146;2023-05-07T10:22:11;11.27;;;9.30;;
31537;SDS011;18147;51.952;6.146;2023-05-07T10:24:42;15.70;;;11.52;;
31537;SDS011;18147;51.952;6.146;2023-05-07T10:27:15;14.20;;;10.30;;
31537;SDS011;18147;51.952;6.146;2023-05-07T10:35:14;15.77;;;10.45;;
31537;SDS011;18147;51.952;6.146;2023-05-07T10:37:45;14.77;;;11.48;;
31537;SDS011;18147;51.952;6.146;2023-05-07T10:40:11;16.13;;;11.63;;
31537;SDS011;18147;51.952;6.146;2023-05-07T10:42:38;12.30;;;10.35;;
31537;SDS011;18147;51.952;6.146;2023-05-07T10:45:11;14.85;;;11.32;;
31537;SDS011;18147;51.952;6.146;2023-05-07T10:50:51;12.95;;;11.20;;
31537;SDS011;18147;51.952;6.146;2023-05-07T10:53:44;11.23;;;10.00;;
31537;SDS011;18147;51.952;6.146;2023-05-07T10:58:52;15.57;;;10.95;;
31537;SDS011;18147;51.952;6.146;2023-05-07T11:04:19;17.70;;;12.00;;
31537;SDS011;18147;51.952;6.146;2023-05-07T11:15:08;16.38;;;12.23;;
31537;SDS011;18147;51.952;6.146;2023-05-07T11:26:15;17.63;;;13.10;;
31537;SDS011;18147;51.952;6.146;2023-05-07T11:28:43;16.58;;;13.27;;
31537;SDS011;18147;51.952;6.146;2023-05-07T11:31:10;17.38;;;13.02;;
31537;SDS011;18147;51.952;6.146;2023-05-07T11:33:37;15.88;;;13.30;;
31537;SDS011;18147;51.952;6.146;2023-05-07T11:36:05;15.30;;;12.65;;
31537;SDS011;18147;51.952;6.146;2023-05-07T11:38:38;16.65;;;14.40;;
31537;SDS011;18147;51.952;6.146;2023-05-07T11:41:04;20.83;;;15.38;;
31537;SDS011;18147;51.952;6.146;2023-05-07T11:43:33;19.60;;;14.30;;
31537;SDS011;18147;51.952;6.146;2023-05-07T11:46:06;20.05;;;14.35;;
31537;SDS011;18147;51.952;6.146;2023-05-07T11:48:37;18.77;;;13.73;;
31537;SDS011;18147;51.952;6.146;2023-05-07T11:51:04;18.50;;;12.85;;
31537;SDS011;18147;51.952;6.146;2023-05-07T11:53:37;12.90;;;11.55;;
31537;SDS011;18147;51.952;6.146;2023-05-07T11:56:08;16.52;;;12.50;;
31537;SDS011;18147;51.952;6.146;2023-05-07T11:58:37;14.82;;;12.75;;
31537;SDS011;18147;51.952;6.146;2023-05-07T12:01:02;17.98;;;13.60;;
31537;SDS011;18147;51.952;6.146;2023-05-07T12:03:29;15.50;;;13.80;;
31537;SDS011;18147;51.952;6.146;2023-05-07T12:05:55;19.23;;;13.18;;
31537;SDS011;18147;51.952;6.146;2023-05-07T12:08:21;14.48;;;12.57;;
31537;SDS011;18147;51.952;6.146;2023-05-07T12:10:49;16.35;;;12.98;;
31537;SDS011;18147;51.952;6.146;2023-05-07T12:13:20;17.48;;;14.07;;
31537;SDS011;18147;51.952;6.146;2023-05-07T12:15:50;17.67;;;12.23;;
31537;SDS011;18147;51.952;6.146;2023-05-07T12:18:20;17.33;;;13.32;;
31537;SDS011;18147;51.952;6.146;2023-05-07T12:20:48;16.85;;;13.63;;
31537;SDS011;18147;51.952;6.146;2023-05-07T12:23:14;13.82;;;11.93;;
31537;SDS011;18147;51.952;6.146;2023-05-07T12:25:41;16.45;;;12.02;;
31537;SDS011;18147;51.952;6.146;2023-05-07T12:28:15;14.98;;;11.80;;
31537;SDS011;18147;51.952;6.146;2023-05-07T12:30:45;13.70;;;12.00;;
31537;SDS011;18147;51.952;6.146;2023-05-07T12:33:17;15.55;;;11.52;;
31537;SDS011;18147;51.952;6.146;2023-05-07T12:35:45;15.80;;;10.80;;
31537;SDS011;18147;51.952;6.146;2023-05-07T12:38:13;13.48;;;11.38;;
31537;SDS011;18147;51.952;6.146;2023-05-07T12:40:53;16.45;;;11.23;;
31537;SDS011;18147;51.952;6.146;2023-05-07T12:43:20;14.02;;;12.30;;
31537;SDS011;18147;51.952;6.146;2023-05-07T12:45:47;15.77;;;11.80;;
31537;SDS011;18147;51.952;6.146;2023-05-07T12:48:17;14.43;;;11.05;;
31537;SDS011;18147;51.952;6.146;2023-05-07T12:50:44;15.57;;;11.80;;
31537;SDS011;18147;51.952;6.146;2023-05-07T12:53:11;17.17;;;12.52;;
31537;SDS011;18147;51.952;6.146;2023-05-07T12:55:41;14.93;;;11.40;;
31537;SDS011;18147;51.952;6.146;2023-05-07T12:58:14;12.77;;;11.38;;
31537;SDS011;18147;51.952;6.146;2023-05-07T13:00:41;15.38;;;11.32;;
31537;SDS011;18147;51.952;6.146;2023-05-07T13:03:09;14.07;;;10.80;;
31537;SDS011;18147;51.952;6.146;2023-05-07T13:05:36;14.13;;;10.07;;
31537;SDS011;18147;51.952;6.146;2023-05-07T13:08:01;17.38;;;10.73;;
31537;SDS011;18147;51.952;6.146;2023-05-07T13:10:27;15.80;;;10.77;;
31537;SDS011;18147;51.952;6.146;2023-05-07T13:12:53;12.90;;;10.63;;
31537;SDS011;18147;51.952;6.146;2023-05-07T13:15:19;15.60;;;10.85;;
31537;SDS011;18147;51.952;6.146;2023-05-07T13:17:45;14.45;;;11.57;;
31537;SDS011;18147;51.952;6.146;2023-05-07T13:20:11;15.85;;;12.07;;
31537;SDS011;18147;51.952;6.146;2023-05-07T13:22:38;16.85;;;11.85;;
31537;SDS011;18147;51.952;6.146;2023-05-07T13:25:04;11.57;;;10.15;;
31537;SDS011;18147;51.952;6.146;2023-05-07T13:27:30;14.10;;;10.75;;
31537;SDS011;18147;51.952;6.146;2023-05-07T13:29:56;14.40;;;11.23;;
31537;SDS011;18147;51.952;6.146;2023-05-07T13:32:22;13.27;;;10.10;;
31537;SDS011;18147;51.952;6.146;2023-05-07T13:34:48;15.07;;;10.85;;
31537;SDS011;18147;51.952;6.146;2023-05-07T13:37:13;16.10;;;9.73;;
31537;SDS011;18147;51.952;6.146;2023-05-07T13:39:39;12.98;;;9.93;;
31537;SDS011;18147;51.952;6.146;2023-05-07T13:42:06;12.73;;;9.52;;
31537;SDS011;18147;51.952;6.146;2023-05-07T13:44:32;16.17;;;10.82;;
31537;SDS011;18147;51.952;6.146;2023-05-07T13:46:57;14.23;;;11.98;;
31537;SDS011;18147;51.952;6.146;2023-05-07T13:49:23;20.73;;;14.55;;
31537;SDS011;18147;51.952;6.146;2023-05-07T13:51:49;18.50;;;14.20;;
31537;SDS011;18147;51.952;6.146;2023-05-07T13:54:14;19.30;;;15.63;;
31537;SDS011;18147;51.952;6.146;2023-05-07T13:56:41;20.20;;;15.93;;
31537;SDS011;18147;51.952;6.146;2023-05-07T13:59:06;21.05;;;16.52;;
31537;SDS011;18147;51.952;6.146;2023-05-07T14:01:32;19.20;;;16.02;;
31537;SDS011;18147;51.952;6.146;2023-05-07T14:03:57;24.05;;;15.75;;
31537;SDS011;18147;51.952;6.146;2023-05-07T14:06:24;22.40;;;16.65;;
31537;SDS011;18147;51.952;6.146;2023-05-07T14:08:50;23.83;;;17.38;;
31537;SDS011;18147;51.952;6.146;2023-05-07T14:11:16;20.77;;;16.45;;
31537;SDS011;18147;51.952;6.146;2023-05-07T14:13:42;23.50;;;15.48;;
31537;SDS011;18147;51.952;6.146;2023-05-07T14:16:08;22.58;;;13.90;;
31537;SDS011;18147;51.952;6.146;2023-05-07T14:18:34;14.63;;;11.35;;
31537;SDS011;18147;51.952;6.146;2023-05-07T14:21:02;20.00;;;12.75;;
31537;SDS011;18147;51.952;6.146;2023-05-07T14:23:28;26.27;;;9.55;;
31537;SDS011;18147;51.952;6.146;2023-05-07T14:25:53;13.23;;;8.23;;
31537;SDS011;18147;51.952;6.146;2023-05-07T14:28:19;12.35;;;7.63;;
31537;SDS011;18147;51.952;6.146;2023-05-07T14:30:44;12.90;;;7.82;;
31537;SDS011;18147;51.952;6.146;2023-05-07T14:33:10;14.20;;;9.70;;
31537;SDS011;18147;51.952;6.146;2023-05-07T14:35:35;17.20;;;11.68;;
31537;SDS011;18147;51.952;6.146;2023-05-07T14:38:01;20.60;;;14.38;;
31537;SDS011;18147;51.952;6.146;2023-05-07T14:40:27;19.35;;;13.73;;
31537;SDS011;18147;51.952;6.146;2023-05-07T14:42:53;18.17;;;14.20;;
31537;SDS011;18147;51.952;6.146;2023-05-07T14:45:18;18.70;;;13.50;;
31537;SDS011;18147;51.952;6.146;2023-05-07T14:47:46;16.83;;;11.50;;
31537;SDS011;18147;51.952;6.146;2023-05-07T14:50:11;13.23;;;9.75;;
31537;SDS011;18147;51.952;6.146;2023-05-07T14:52:37;9.98;;;7.72;;
31537;SDS011;18147;51.952;6.146;2023-05-07T14:55:02;20.23;;;12.95;;
31537;SDS011;18147;51.952;6.146;2023-05-07T14:57:30;22.50;;;13.13;;